Time;durP1;ratioP1;P1;durP2;ratioP2;P2;SDS_P1;SDS_P2;PMS_P1;PMS_P2;Temp;Humidity;BMP_temperature;BMP_pressure;BME280_temperature;BME280_humidity;BME280_pressure;Samples;Min_cycle;Max_cycle;Signal;HPM_P1;HPM_P2
2024/01/01 00:00:19;;;;;;;33.08;17.50;;;;;;;;;;8272821;28;20176;-57
2024/01/01 00:04:19;;;;;;;9.30;4.80;;;;;;;;;;8269633;28;20017;-58
2024/01/01 00:08:19;;;;;;;13.75;4.80;;;;;;;;;;8269567;28;20389;-58
2024/01/01 00:12:19;;;;;;;9.20;4.75;;;;;;;;;;8265019;28;20032;-58
2024/01/01 00:16:20;;;;;;;13.88;5.55;;;;;;;;;;8261504;28;20050;-59
2024/01/01 00:20:20;;;;;;;12.13;5.35;;;;;;;;;;8261618;28;20099;-59
2024/01/01 00:24:20;;;;;;;11.15;5.28;;;;;;;;;;8261848;28;20029;-58
2024/01/01 00:28:20;;;;;;;14.95;5.45;;;;;;;;;;8258759;28;20021;-58
2024/01/01 00:32:21;;;;;;;11.93;5.28;;;;;;;;;;8261931;28;20379;-57
2024/01/01 00:36:21;;;;;;;9.98;4.88;;;;;;;;;;8260924;28;20029;-57
2024/01/01 00:40:23;;;;;;;15.95;6.15;;;;;;;;;;8261513;28;20029;-59
2024/01/01 00:44:25;;;;;;;14.38;5.97;;;;;;;;;;8262164;28;21878;-58
2024/01/01 00:48:25;;;;;;;13.05;5.65;;;;;;;;;;8259876;28;20069;-58
2024/01/01 00:52:26;;;;;;;13.45;5.30;;;;;;;;;;8263965;28;20182;-58
2024/01/01 00:56:26;;;;;;;9.63;5.05;;;;;;;;;;8274606;28;20365;-56
2024/01/01 01:00:27;;;;;;;10.75;4.70;;;;;;;;;;8270536;28;20041;-57
2024/01/01 01:04:27;;;;;;;10.35;3.90;;;;;;;;;;8274176;28;20033;-56
2024/01/01 01:08:28;;;;;;;9.13;4.05;;;;;;;;;;8267903;28;20018;-58
2024/01/01 01:12:28;;;;;;;14.05;3.83;;;;;;;;;;8264351;28;20025;-58
2024/01/01 01:16:28;;;;;;;8.27;3.80;;;;;;;;;;8256140;28;20037;-57
2024/01/01 01:20:28;;;;;;;18.17;4.15;;;;;;;;;;8257131;28;20399;-57
2024/01/01 01:24:29;;;;;;;11.23;3.72;;;;;;;;;;8260845;28;20025;-58
2024/01/01 01:28:29;;;;;;;10.05;3.40;;;;;;;;;;8258717;28;20021;-57
2024/01/01 01:32:29;;;;;;;5.93;2.90;;;;;;;;;;8257681;28;20099;-59
2024/01/01 01:36:29;;;;;;;7.05;2.90;;;;;;;;;;8261475;28;20026;-59
2024/01/01 01:40:29;;;;;;;9.07;3.10;;;;;;;;;;8258166;28;20029;-59
2024/01/01 01:44:32;;;;;;;6.50;2.45;;;;;;;;;;8261973;28;20029;-59
2024/01/01 01:48:32;;;;;;;7.07;2.67;;;;;;;;;;8259416;28;20569;-59
2024/01/01 01:52:34;;;;;;;8.95;2.40;;;;;;;;;;8263487;28;20049;-57
2024/01/01 01:56:34;;;;;;;9.38;3.15;;;;;;;;;;8266896;28;20025;-59
2024/01/01 02:00:34;;;;;;;6.75;2.25;;;;;;;;;;8266089;28;20045;-58
2024/01/01 02:04:34;;;;;;;6.78;2.78;;;;;;;;;;8267257;28;20109;-58
2024/01/01 02:08:35;;;;;;;7.72;2.42;;;;;;;;;;8264755;28;20639;-58
2024/01/01 02:12:35;;;;;;;12.35;2.97;;;;;;;;;;8267192;28;20073;-66
2024/01/01 02:16:35;;;;;;;7.80;2.15;;;;;;;;;;8265823;28;20071;-58
2024/01/01 02:20:35;;;;;;;7.22;2.13;;;;;;;;;;8263648;28;20846;-59
2024/01/01 02:24:36;;;;;;;10.95;2.13;;;;;;;;;;8263582;28;20084;-58
2024/01/01 02:28:36;;;;;;;8.48;2.20;;;;;;;;;;8260926;28;20053;-59
2024/01/01 02:32:37;;;;;;;7.28;1.88;;;;;;;;;;8264431;28;20289;-58
2024/01/01 02:36:39;;;;;;;13.48;2.08;;;;;;;;;;8278076;28;20021;-58
2024/01/01 02:40:39;;;;;;;11.10;1.75;;;;;;;;;;8279146;28;20037;-57
2024/01/01 02:44:39;;;;;;;6.28;1.65;;;;;;;;;;8280382;28;20033;-58
2024/01/01 02:48:39;;;;;;;8.67;1.97;;;;;;;;;;8275906;28;20041;-59
2024/01/01 02:52:40;;;;;;;10.13;1.70;;;;;;;;;;8278786;28;20061;-58
2024/01/01 02:56:40;;;;;;;7.65;2.03;;;;;;;;;;8280567;28;20344;-58
2024/01/01 03:00:41;;;;;;;8.13;1.83;;;;;;;;;;8279068;28;20046;-58
2024/01/01 03:04:41;;;;;;;9.48;2.15;;;;;;;;;;8280211;28;20044;-57
2024/01/01 03:08:41;;;;;;;8.32;1.60;;;;;;;;;;8277072;28;20126;-57
2024/01/01 03:12:41;;;;;;;8.20;2.00;;;;;;;;;;8295070;28;20321;-58
2024/01/01 03:16:41;;;;;;;10.35;1.92;;;;;;;;;;8262561;28;20048;-57
2024/01/01 03:20:41;;;;;;;7.72;1.25;;;;;;;;;;8263242;28;20029;-57
2024/01/01 03:24:42;;;;;;;7.47;1.90;;;;;;;;;;8253430;28;20072;-56
2024/01/01 03:28:42;;;;;;;7.00;1.40;;;;;;;;;;8257547;28;20140;-57
2024/01/01 03:32:42;;;;;;;9.35;1.63;;;;;;;;;;8254840;28;20051;-57
2024/01/01 03:36:43;;;;;;;7.38;1.50;;;;;;;;;;8254927;28;20059;-58
2024/01/01 03:40:43;;;;;;;9.57;1.80;;;;;;;;;;8254402;28;20017;-58
2024/01/01 03:44:43;;;;;;;10.43;1.90;;;;;;;;;;8255514;28;20060;-58
2024/01/01 03:48:43;;;;;;;7.05;1.80;;;;;;;;;;8253447;28;20041;-58
2024/01/01 03:52:44;;;;;;;6.53;1.88;;;;;;;;;;8259670;28;20040;-59
2024/01/01 03:56:44;;;;;;;15.18;2.50;;;;;;;;;;8259275;28;20056;-57
2024/01/01 04:00:44;;;;;;;6.72;1.85;;;;;;;;;;8259201;28;21033;-57
2024/01/01 04:04:44;;;;;;;14.57;2.47;;;;;;;;;;8259599;28;20039;-58
2024/01/01 04:08:44;;;;;;;11.25;2.00;;;;;;;;;;8259071;28;20018;-57
2024/01/01 04:12:45;;;;;;;7.53;1.80;;;;;;;;;;8255402;28;21463;-57
2024/01/01 04:16:45;;;;;;;9.40;1.85;;;;;;;;;;8254569;28;20045;-57
2024/01/01 04:20:45;;;;;;;12.00;2.20;;;;;;;;;;8259541;28;20029;-58
2024/01/01 04:24:46;;;;;;;7.22;1.38;;;;;;;;;;8262884;28;20724;-58
2024/01/01 04:28:47;;;;;;;10.65;1.65;;;;;;;;;;8275414;28;20032;-58
2024/01/01 04:32:47;;;;;;;7.85;1.75;;;;;;;;;;8266399;28;20038;-57
2024/01/01 04:36:47;;;;;;;11.20;1.63;;;;;;;;;;8277621;28;20107;-57
2024/01/01 04:40:47;;;;;;;6.03;1.13;;;;;;;;;;8275143;28;20315;-58
2024/01/01 04:44:48;;;;;;;11.02;2.40;;;;;;;;;;8266251;28;21112;-59
2024/01/01 04:48:48;;;;;;;7.97;1.33;;;;;;;;;;8257113;28;20227;-59
2024/01/01 04:52:48;;;;;;;6.15;1.38;;;;;;;;;;8258341;28;20272;-57
2024/01/01 04:56:48;;;;;;;6.25;1.58;;;;;;;;;;8257382;28;20025;-60
2024/01/01 05:00:49;;;;;;;8.35;1.65;;;;;;;;;;8255742;28;20547;-59
2024/01/01 05:04:49;;;;;;;9.35;1.35;;;;;;;;;;8258152;28;20395;-57
2024/01/01 05:08:49;;;;;;;5.80;1.45;;;;;;;;;;8257011;28;20032;-58
2024/01/01 05:12:49;;;;;;;10.32;1.67;;;;;;;;;;8255365;28;20014;-57
2024/01/01 05:16:50;;;;;;;7.68;1.67;;;;;;;;;;8254014;28;20732;-58
2024/01/01 05:20:50;;;;;;;6.53;1.98;;;;;;;;;;8258635;28;20053;-57
2024/01/01 05:24:50;;;;;;;8.27;1.88;;;;;;;;;;8254268;28;20021;-58
2024/01/01 05:28:50;;;;;;;12.85;2.10;;;;;;;;;;8256502;28;20087;-58
2024/01/01 05:32:51;;;;;;;11.68;2.42;;;;;;;;;;8255638;28;20080;-58
2024/01/01 05:36:51;;;;;;;9.10;2.28;;;;;;;;;;8256788;28;20029;-57
2024/01/01 05:40:51;;;;;;;9.70;1.67;;;;;;;;;;8253401;28;20044;-57
2024/01/01 05:44:51;;;;;;;9.13;1.42;;;;;;;;;;8256917;28;20977;-58
2024/01/01 05:48:51;;;;;;;8.60;2.17;;;;;;;;;;8254904;28;20034;-58
2024/01/01 05:52:52;;;;;;;9.05;2.08;;;;;;;;;;8257730;28;20021;-58
2024/01/01 05:56:52;;;;;;;11.60;2.08;;;;;;;;;;8260039;28;20980;-59
2024/01/01 06:00:52;;;;;;;9.50;2.13;;;;;;;;;;8259422;28;20096;-58
2024/01/01 06:04:52;;;;;;;8.20;1.77;;;;;;;;;;8259177;28;20139;-59
2024/01/01 06:08:53;;;;;;;6.30;1.43;;;;;;;;;;8255114;28;20045;-59
2024/01/01 06:12:53;;;;;;;7.80;1.58;;;;;;;;;;8250178;28;20346;-59
2024/01/01 06:16:53;;;;;;;7.65;1.40;;;;;;;;;;8255734;28;20045;-58
2024/01/01 06:20:53;;;;;;;5.38;1.52;;;;;;;;;;8251682;28;20144;-57
2024/01/01 06:24:54;;;;;;;7.00;1.63;;;;;;;;;;8254921;28;20053;-58
2024/01/01 06:28:54;;;;;;;9.30;1.58;;;;;;;;;;8252735;28;20279;-58
2024/01/01 06:32:54;;;;;;;10.43;1.73;;;;;;;;;;8252056;28;20217;-58
2024/01/01 06:36:54;;;;;;;8.45;2.72;;;;;;;;;;8253991;28;20144;-57
2024/01/01 06:40:54;;;;;;;12.88;2.10;;;;;;;;;;8253177;28;20029;-57
2024/01/01 06:45:01;;;;;;;10.45;2.05;;;;;;;;;;8270194;28;20044;-56
2024/01/01 06:49:01;;;;;;;4.43;1.40;;;;;;;;;;8280171;28;20140;-58
2024/01/01 06:53:03;;;;;;;8.95;1.45;;;;;;;;;;8280290;28;20954;-58
2024/01/01 06:57:03;;;;;;;8.68;1.65;;;;;;;;;;8281468;28;20128;-59
2024/01/01 07:01:03;;;;;;;7.93;1.37;;;;;;;;;;8282190;28;20590;-57
2024/01/01 07:05:04;;;;;;;4.28;1.40;;;;;;;;;;8280281;28;20276;-57
2024/01/01 07:09:05;;;;;;;14.45;2.25;;;;;;;;;;8278383;28;20175;-57
2024/01/01 07:13:07;;;;;;;11.38;1.98;;;;;;;;;;8278372;28;20025;-57
2024/01/01 07:17:08;;;;;;;7.68;1.88;;;;;;;;;;8260142;28;21817;-57
2024/01/01 07:21:08;;;;;;;9.25;1.88;;;;;;;;;;8258705;28;20029;-61
2024/01/01 07:25:12;;;;;;;18.48;2.83;;;;;;;;;;8256740;28;20029;-61
2024/01/01 07:29:12;;;;;;;11.95;2.47;;;;;;;;;;8259096;28;20618;-57
2024/01/01 07:33:12;;;;;;;12.23;1.80;;;;;;;;;;8257366;28;20164;-57
2024/01/01 07:37:12;;;;;;;9.70;1.90;;;;;;;;;;8257135;28;20159;-58
2024/01/01 07:41:12;;;;;;;10.10;1.98;;;;;;;;;;8258765;28;20047;-56
2024/01/01 07:45:13;;;;;;;10.23;1.60;;;;;;;;;;8258061;28;20022;-58
2024/01/01 07:49:13;;;;;;;7.25;1.45;;;;;;;;;;8259300;28;20437;-57
2024/01/01 07:53:13;;;;;;;8.55;1.48;;;;;;;;;;8262259;28;20215;-57
2024/01/01 07:57:13;;;;;;;6.45;1.33;;;;;;;;;;8276988;28;20022;-58
2024/01/01 08:01:16;;;;;;;9.65;1.33;;;;;;;;;;8279744;28;20049;-56
2024/01/01 08:05:16;;;;;;;2.25;1.00;;;;;;;;;;8283976;28;20022;-57
2024/01/01 08:09:16;;;;;;;4.53;1.17;;;;;;;;;;8279323;28;20029;-57
2024/01/01 08:13:17;;;;;;;4.45;1.30;;;;;;;;;;8275743;28;20689;-57
2024/01/01 08:17:17;;;;;;;2.60;0.90;;;;;;;;;;8263036;28;20048;-57
2024/01/01 08:21:17;;;;;;;2.40;1.08;;;;;;;;;;8257224;28;20025;-56
2024/01/01 08:25:17;;;;;;;1.80;1.27;;;;;;;;;;8259137;28;20537;-57
2024/01/01 08:29:18;;;;;;;6.53;1.15;;;;;;;;;;8254435;28;20106;-57
2024/01/01 08:33:18;;;;;;;5.27;1.17;;;;;;;;;;8256348;28;20036;-57
2024/01/01 08:37:19;;;;;;;4.40;1.20;;;;;;;;;;8259990;28;20047;-57
2024/01/01 08:41:19;;;;;;;10.63;2.05;;;;;;;;;;8256219;28;20056;-57
2024/01/01 08:45:19;;;;;;;8.73;1.70;;;;;;;;;;8252204;28;20022;-57
2024/01/01 08:49:19;;;;;;;9.27;2.45;;;;;;;;;;8254096;28;20033;-57
2024/01/01 08:53:19;;;;;;;10.00;2.17;;;;;;;;;;8253956;28;20036;-57
2024/01/01 08:57:20;;;;;;;10.05;1.67;;;;;;;;;;8252283;28;20141;-57
2024/01/01 09:01:20;;;;;;;14.55;2.60;;;;;;;;;;8252928;28;20140;-59
2024/01/01 09:05:20;;;;;;;10.82;2.15;;;;;;;;;;8255873;28;20028;-59
2024/01/01 09:09:22;;;;;;;8.83;2.00;;;;;;;;;;8252800;28;20060;-58
2024/01/01 09:13:22;;;;;;;18.33;2.50;;;;;;;;;;8252633;28;20056;-58
2024/01/01 09:17:22;;;;;;;14.20;1.87;;;;;;;;;;8256705;28;20159;-58
2024/01/01 09:21:24;;;;;;;9.43;1.70;;;;;;;;;;8252276;28;20278;-59
2024/01/01 09:25:24;;;;;;;14.68;2.50;;;;;;;;;;8258072;28;20021;-59
2024/01/01 09:29:24;;;;;;;13.93;2.00;;;;;;;;;;8256553;28;20036;-59
2024/01/01 09:33:25;;;;;;;11.48;2.22;;;;;;;;;;8249719;28;20037;-59
2024/01/01 09:37:26;;;;;;;11.85;2.13;;;;;;;;;;8261232;28;20060;-59
2024/01/01 09:41:26;;;;;;;9.98;1.80;;;;;;;;;;8268016;28;20040;-57
2024/01/01 09:45:27;;;;;;;10.68;3.28;;;;;;;;;;8257048;28;20057;-57
2024/01/01 09:49:27;;;;;;;11.98;2.92;;;;;;;;;;8255414;28;20025;-59
2024/01/01 09:53:27;;;;;;;10.13;2.20;;;;;;;;;;8261285;28;20078;-59
2024/01/01 09:57:28;;;;;;;12.20;1.92;;;;;;;;;;8255155;28;20029;-59
2024/01/01 10:01:30;;;;;;;12.88;2.08;;;;;;;;;;8255614;28;20045;-58
2024/01/01 10:05:30;;;;;;;11.43;2.10;;;;;;;;;;8260204;28;20021;-58
2024/01/01 10:09:32;;;;;;;7.43;2.00;;;;;;;;;;8258988;28;20021;-59
2024/01/01 10:13:32;;;;;;;11.18;2.33;;;;;;;;;;8248393;28;20033;-59
2024/01/01 10:17:33;;;;;;;11.90;2.05;;;;;;;;;;8266770;28;20044;-58
2024/01/01 10:21:37;;;;;;;9.48;1.83;;;;;;;;;;8276932;28;20030;-58
2024/01/01 10:25:38;;;;;;;11.90;2.20;;;;;;;;;;8271627;28;20021;-57
2024/01/01 10:29:38;;;;;;;12.43;2.28;;;;;;;;;;8275640;28;20024;-58
2024/01/01 10:33:40;;;;;;;11.13;2.10;;;;;;;;;;8272551;28;20044;-57
2024/01/01 10:37:42;;;;;;;8.75;1.70;;;;;;;;;;8274221;28;20040;-58
2024/01/01 10:41:43;;;;;;;8.38;2.03;;;;;;;;;;8273720;28;20105;-58
2024/01/01 10:45:44;;;;;;;7.68;2.25;;;;;;;;;;8269033;28;21132;-59
2024/01/01 10:49:58;;;;;;;11.95;2.15;;;;;;;;;;8267172;28;20025;-59
2024/01/01 10:54:17;;;;;;;4.28;1.50;;;;;;;;;;8265241;28;20024;-58
2024/01/01 10:58:36;;;;;;;9.80;2.40;;;;;;;;;;8261665;28;20182;-58
2024/01/01 11:02:36;;;;;;;10.63;1.80;;;;;;;;;;8264492;28;20170;-58
2024/01/01 11:06:41;;;;;;;8.65;1.98;;;;;;;;;;8261448;28;20053;-58
2024/01/01 11:10:45;;;;;;;12.55;2.22;;;;;;;;;;8260686;28;20026;-58
2024/01/01 11:14:48;;;;;;;9.98;1.63;;;;;;;;;;8258600;28;20041;-57
2024/01/01 11:18:48;;;;;;;15.25;2.40;;;;;;;;;;8262510;28;20037;-57
2024/01/01 11:22:48;;;;;;;10.18;2.05;;;;;;;;;;8265310;28;20028;-58
2024/01/01 11:26:48;;;;;;;11.85;3.50;;;;;;;;;;8261511;28;20084;-60
2024/01/01 11:30:49;;;;;;;6.30;1.88;;;;;;;;;;8262072;28;20135;-58
2024/01/01 11:35:06;;;;;;;11.88;2.78;;;;;;;;;;8266924;28;20566;-60
2024/01/01 11:39:07;;;;;;;7.10;2.25;;;;;;;;;;8261690;28;20108;-57
2024/01/01 11:43:07;;;;;;;15.98;3.17;;;;;;;;;;8261821;28;20100;-59
2024/01/01 11:47:07;;;;;;;8.53;2.20;;;;;;;;;;8268018;28;20040;-58
2024/01/01 11:51:09;;;;;;;16.30;2.67;;;;;;;;;;8272581;28;20291;-57
2024/01/01 11:55:09;;;;;;;15.77;3.17;;;;;;;;;;8270468;28;20164;-59
2024/01/01 11:59:09;;;;;;;10.82;2.75;;;;;;;;;;8259613;28;20156;-59
2024/01/01 12:03:11;;;;;;;14.80;3.10;;;;;;;;;;8258059;28;20174;-59
2024/01/01 12:07:24;;;;;;;10.38;2.25;;;;;;;;;;8263647;28;20021;-59
2024/01/01 12:11:24;;;;;;;8.88;2.33;;;;;;;;;;8259137;28;20040;-58
2024/01/01 12:15:29;;;;;;;14.87;2.30;;;;;;;;;;8262456;28;20041;-59
2024/01/01 12:19:31;;;;;;;10.43;2.55;;;;;;;;;;8251604;28;20033;-58
2024/01/01 12:23:31;;;;;;;11.40;2.35;;;;;;;;;;8261095;28;20026;-59
2024/01/01 12:27:31;;;;;;;13.93;2.85;;;;;;;;;;8258572;28;20853;-57
2024/01/01 12:31:32;;;;;;;14.25;2.88;;;;;;;;;;8257608;28;20033;-58
2024/01/01 12:35:32;;;;;;;12.65;3.35;;;;;;;;;;8257962;28;20640;-57
2024/01/01 12:39:32;;;;;;;15.50;3.03;;;;;;;;;;8252670;28;20021;-57
2024/01/01 12:43:32;;;;;;;18.52;5.88;;;;;;;;;;8257330;28;20268;-58
2024/01/01 12:47:33;;;;;;;18.55;4.07;;;;;;;;;;8259427;28;20110;-59
2024/01/01 12:51:33;;;;;;;17.17;3.93;;;;;;;;;;8259720;28;20025;-57
2024/01/01 12:55:33;;;;;;;9.50;2.67;;;;;;;;;;8253377;28;20272;-58
2024/01/01 12:59:33;;;;;;;12.82;2.78;;;;;;;;;;8252703;28;20058;-57
2024/01/01 13:03:33;;;;;;;18.27;2.90;;;;;;;;;;8251030;28;20091;-58
2024/01/01 13:07:33;;;;;;;13.90;2.55;;;;;;;;;;8266882;28;20028;-58
2024/01/01 13:11:34;;;;;;;13.05;2.22;;;;;;;;;;8271376;28;20036;-58
2024/01/01 13:15:38;;;;;;;11.77;3.77;;;;;;;;;;8269987;28;20593;-58
2024/01/01 13:19:38;;;;;;;18.27;3.72;;;;;;;;;;8267705;28;20280;-57
2024/01/01 13:23:38;;;;;;;12.48;2.90;;;;;;;;;;8265843;28;20048;-58
2024/01/01 13:27:39;;;;;;;22.58;3.70;;;;;;;;;;8266473;28;20086;-58
2024/01/01 13:31:39;;;;;;;19.15;3.63;;;;;;;;;;8270038;28;20494;-57
2024/01/01 13:35:40;;;;;;;15.23;4.15;;;;;;;;;;8275138;28;20087;-58
2024/01/01 13:39:40;;;;;;;18.27;3.70;;;;;;;;;;8261877;28;20034;-58
2024/01/01 13:43:41;;;;;;;20.00;5.20;;;;;;;;;;8259905;28;20167;-58
2024/01/01 13:47:41;;;;;;;31.88;6.47;;;;;;;;;;8253096;28;20176;-57
2024/01/01 13:51:41;;;;;;;21.40;4.63;;;;;;;;;;8255816;28;20037;-58
2024/01/01 13:55:41;;;;;;;18.20;4.45;;;;;;;;;;8257034;28;20038;-58
2024/01/01 13:59:41;;;;;;;10.60;2.60;;;;;;;;;;8253603;28;20580;-57
2024/01/01 14:03:43;;;;;;;16.08;3.45;;;;;;;;;;8258007;28;20095;-58
2024/01/01 14:07:45;;;;;;;16.85;3.13;;;;;;;;;;8262628;28;20060;-58
2024/01/01 14:11:47;;;;;;;16.75;3.92;;;;;;;;;;8263242;28;20030;-58
2024/01/01 14:15:47;;;;;;;13.23;3.28;;;;;;;;;;8262431;28;20041;-58
2024/01/01 14:19:47;;;;;;;12.63;2.63;;;;;;;;;;8262813;28;20029;-58
2024/01/01 14:23:48;;;;;;;15.93;3.67;;;;;;;;;;8266268;28;20037;-58
2024/01/01 14:27:48;;;;;;;12.68;2.92;;;;;;;;;;8257751;28;20021;-58
2024/01/01 14:31:49;;;;;;;9.68;2.47;;;;;;;;;;8258517;28;20134;-59
2024/01/01 14:35:49;;;;;;;13.90;2.45;;;;;;;;;;8261220;28;20049;-58
2024/01/01 14:39:49;;;;;;;10.98;2.22;;;;;;;;;;8258985;28;20033;-58
2024/01/01 14:43:49;;;;;;;12.85;2.53;;;;;;;;;;8261791;28;20183;-57
2024/01/01 14:47:51;;;;;;;11.02;2.50;;;;;;;;;;8254337;28;20044;-59
2024/01/01 14:51:51;;;;;;;13.57;2.00;;;;;;;;;;8255566;28;20067;-58
2024/01/01 14:55:51;;;;;;;12.43;2.15;;;;;;;;;;8251427;28;20025;-58
2024/01/01 14:59:52;;;;;;;14.70;2.40;;;;;;;;;;8259171;28;20025;-58
2024/01/01 15:03:53;;;;;;;16.45;2.67;;;;;;;;;;8255280;28;20403;-58
2024/01/01 15:07:53;;;;;;;15.40;3.07;;;;;;;;;;8256303;28;20123;-58
2024/01/01 15:11:53;;;;;;;14.77;2.37;;;;;;;;;;8257014;28;20271;-58
2024/01/01 15:15:54;;;;;;;13.13;2.43;;;;;;;;;;8254824;28;20030;-57
2024/01/01 15:19:55;;;;;;;10.27;2.55;;;;;;;;;;8256640;28;20762;-57
2024/01/01 15:23:55;;;;;;;16.42;2.53;;;;;;;;;;8258310;28;20162;-57
2024/01/01 15:27:55;;;;;;;14.60;2.77;;;;;;;;;;8255745;28;20033;-58
2024/01/01 15:31:55;;;;;;;12.97;3.13;;;;;;;;;;8256923;28;20338;-58
2024/01/01 15:35:56;;;;;;;15.07;2.58;;;;;;;;;;8255874;28;20741;-58
2024/01/01 15:40:00;;;;;;;14.57;2.70;;;;;;;;;;8257434;28;20494;-58
2024/01/01 15:44:01;;;;;;;16.65;2.88;;;;;;;;;;8257264;28;20024;-58
2024/01/01 15:48:01;;;;;;;14.35;3.15;;;;;;;;;;8255400;28;20136;-58
2024/01/01 15:52:01;;;;;;;16.95;4.43;;;;;;;;;;8256680;28;20048;-56
2024/01/01 15:56:02;;;;;;;10.50;3.28;;;;;;;;;;8254698;28;20025;-58
2024/01/01 16:00:03;;;;;;;13.45;2.95;;;;;;;;;;8255882;28;20028;-58
2024/01/01 16:04:03;;;;;;;10.85;2.90;;;;;;;;;;8255972;28;20099;-58
2024/01/01 16:08:03;;;;;;;19.13;2.73;;;;;;;;;;8251408;28;20025;-58
2024/01/01 16:12:04;;;;;;;22.65;3.22;;;;;;;;;;8254307;28;20324;-58
2024/01/01 16:16:04;;;;;;;13.13;2.33;;;;;;;;;;8254602;28;20037;-58
2024/01/01 16:20:08;;;;;;;14.82;2.70;;;;;;;;;;8252028;28;20125;-58
2024/01/01 16:24:08;;;;;;;14.65;3.10;;;;;;;;;;8249807;28;21782;-58
2024/01/01 16:28:09;;;;;;;16.63;2.60;;;;;;;;;;8254457;28;20123;-58
2024/01/01 16:32:09;;;;;;;11.65;2.53;;;;;;;;;;8258013;28;21100;-58
2024/01/01 16:36:13;;;;;;;12.98;2.88;;;;;;;;;;8254125;28;20503;-57
2024/01/01 16:40:13;;;;;;;9.68;2.10;;;;;;;;;;8256163;28;20032;-58
2024/01/01 16:44:14;;;;;;;13.82;2.47;;;;;;;;;;8253004;28;20711;-58
2024/01/01 16:48:14;;;;;;;14.32;2.75;;;;;;;;;;8259915;28;20037;-57
2024/01/01 16:52:14;;;;;;;10.35;2.28;;;;;;;;;;8263913;28;20115;-57
2024/01/01 16:56:14;;;;;;;17.80;2.35;;;;;;;;;;8263686;28;20091;-57
2024/01/01 17:00:15;;;;;;;11.57;2.38;;;;;;;;;;8262119;28;20129;-57
2024/01/01 17:04:15;;;;;;;14.38;2.35;;;;;;;;;;8261673;28;20083;-58
2024/01/01 17:08:15;;;;;;;12.18;2.30;;;;;;;;;;8261486;28;20029;-58
2024/01/01 17:12:15;;;;;;;12.25;2.55;;;;;;;;;;8260188;28;20469;-57
2024/01/01 17:16:16;;;;;;;12.87;2.53;;;;;;;;;;8262607;28;20077;-57
2024/01/01 17:20:16;;;;;;;13.10;2.72;;;;;;;;;;8251780;28;20272;-57
2024/01/01 17:24:16;;;;;;;11.60;3.28;;;;;;;;;;8251476;28;20029;-57
2024/01/01 17:28:17;;;;;;;17.05;2.70;;;;;;;;;;8249747;28;20030;-58
2024/01/01 17:32:17;;;;;;;10.05;2.35;;;;;;;;;;8249897;28;20034;-58
2024/01/01 17:36:18;;;;;;;12.43;2.40;;;;;;;;;;8253277;28;20033;-58
2024/01/01 17:40:18;;;;;;;13.95;2.40;;;;;;;;;;8250223;28;20032;-57
2024/01/01 17:44:18;;;;;;;14.18;2.75;;;;;;;;;;8252912;28;20136;-57
2024/01/01 17:48:18;;;;;;;15.43;2.70;;;;;;;;;;8247363;28;20044;-57
2024/01/01 17:52:19;;;;;;;14.35;2.25;;;;;;;;;;8248926;28;20144;-58
2024/01/01 17:56:19;;;;;;;7.55;2.08;;;;;;;;;;8251937;28;20025;-59
2024/01/01 18:00:19;;;;;;;8.70;2.30;;;;;;;;;;8253796;28;20029;-59
2024/01/01 18:04:21;;;;;;;12.43;3.45;;;;;;;;;;8252046;28;20095;-59
2024/01/01 18:08:22;;;;;;;11.40;2.67;;;;;;;;;;8247202;28;20028;-59
2024/01/01 18:12:22;;;;;;;12.68;2.97;;;;;;;;;;8250187;28;20030;-59
2024/01/01 18:16:23;;;;;;;12.15;2.30;;;;;;;;;;8254179;28;20068;-59
2024/01/01 18:20:24;;;;;;;9.77;1.98;;;;;;;;;;8250563;28;20037;-59
2024/01/01 18:24:24;;;;;;;10.77;1.85;;;;;;;;;;8248390;28;20029;-60
2024/01/01 18:28:24;;;;;;;14.40;2.50;;;;;;;;;;8261083;28;20030;-57
2024/01/01 18:32:24;;;;;;;9.82;2.22;;;;;;;;;;8263840;28;20111;-58
2024/01/01 18:36:24;;;;;;;12.90;2.23;;;;;;;;;;8263372;28;20021;-59
2024/01/01 18:40:25;;;;;;;11.60;2.20;;;;;;;;;;8267165;28;20103;-59
2024/01/01 18:44:26;;;;;;;8.85;1.95;;;;;;;;;;8248349;28;20690;-58
2024/01/01 18:48:26;;;;;;;10.13;2.05;;;;;;;;;;8252996;28;20148;-59
2024/01/01 18:52:27;;;;;;;8.88;2.10;;;;;;;;;;8250432;28;20834;-59
2024/01/01 18:56:27;;;;;;;12.87;2.57;;;;;;;;;;8256425;28;20028;-59
2024/01/01 19:00:27;;;;;;;11.13;2.40;;;;;;;;;;8254935;28;20276;-57
2024/01/01 19:04:31;;;;;;;8.52;1.95;;;;;;;;;;8254841;28;20029;-59
2024/01/01 19:08:31;;;;;;;9.38;2.63;;;;;;;;;;8252234;28;20474;-58
2024/01/01 19:12:31;;;;;;;9.27;2.45;;;;;;;;;;8255902;28;20091;-58
2024/01/01 19:16:31;;;;;;;9.55;1.88;;;;;;;;;;8254801;28;20041;-59
2024/01/01 19:20:32;;;;;;;6.88;1.77;;;;;;;;;;8250834;28;20052;-58
2024/01/01 19:24:32;;;;;;;12.88;1.90;;;;;;;;;;8256708;28;20037;-58
2024/01/01 19:28:32;;;;;;;8.77;2.00;;;;;;;;;;8248871;28;20064;-58
2024/01/01 19:32:32;;;;;;;5.97;1.73;;;;;;;;;;8246141;28;20057;-58
2024/01/01 19:36:33;;;;;;;7.95;1.85;;;;;;;;;;8253746;28;20870;-58
2024/01/01 19:40:33;;;;;;;8.30;1.73;;;;;;;;;;8252704;28;20060;-58
2024/01/01 19:44:33;;;;;;;10.13;1.73;;;;;;;;;;8254166;28;20268;-57
2024/01/01 19:48:33;;;;;;;11.07;2.33;;;;;;;;;;8251781;28;20037;-59
2024/01/01 19:52:33;;;;;;;7.65;1.88;;;;;;;;;;8252000;28;20041;-57
2024/01/01 19:56:34;;;;;;;8.43;1.73;;;;;;;;;;8252277;28;20025;-58
2024/01/01 20:00:34;;;;;;;6.83;1.70;;;;;;;;;;8250490;28;21273;-57
2024/01/01 20:04:38;;;;;;;8.55;1.77;;;;;;;;;;8250499;28;20466;-58
2024/01/01 20:08:39;;;;;;;8.45;2.10;;;;;;;;;;8249884;28;20024;-58
2024/01/01 20:12:39;;;;;;;8.63;2.10;;;;;;;;;;8249023;28;20021;-58
2024/01/01 20:16:40;;;;;;;13.15;2.13;;;;;;;;;;8253399;28;20894;-58
2024/01/01 20:20:41;;;;;;;11.98;1.85;;;;;;;;;;8249034;28;20033;-59
2024/01/01 20:24:41;;;;;;;8.93;1.88;;;;;;;;;;8246202;28;20107;-62
2024/01/01 20:28:41;;;;;;;14.70;1.95;;;;;;;;;;8239533;28;21010;-58
2024/01/01 20:32:43;;;;;;;9.05;1.73;;;;;;;;;;8246451;28;20123;-57
2024/01/01 20:36:43;;;;;;;9.63;1.95;;;;;;;;;;8249325;28;20935;-58
2024/01/01 20:40:43;;;;;;;6.78;1.73;;;;;;;;;;8250445;28;20025;-56
2024/01/01 20:44:43;;;;;;;7.83;1.80;;;;;;;;;;8250663;28;20091;-57
2024/01/01 20:48:44;;;;;;;7.00;1.48;;;;;;;;;;8250068;28;20037;-58
2024/01/01 20:52:44;;;;;;;10.03;1.90;;;;;;;;;;8254157;28;20044;-59
2024/01/01 20:56:44;;;;;;;6.65;1.50;;;;;;;;;;8251681;28;20272;-59
2024/01/01 21:00:44;;;;;;;8.33;1.83;;;;;;;;;;8249347;28;20105;-59
2024/01/01 21:04:45;;;;;;;8.85;1.77;;;;;;;;;;8249456;28;20280;-59
2024/01/01 21:08:47;;;;;;;6.20;1.38;;;;;;;;;;8255489;28;20052;-57
2024/01/01 21:12:47;;;;;;;2.75;1.55;;;;;;;;;;8264434;28;20021;-58
2024/01/01 21:16:47;;;;;;;7.43;1.85;;;;;;;;;;8262173;28;20041;-58
2024/01/01 21:20:48;;;;;;;7.03;1.50;;;;;;;;;;8248486;28;20909;-57
2024/01/01 21:24:50;;;;;;;5.10;1.50;;;;;;;;;;8249029;28;20335;-60
2024/01/01 21:28:50;;;;;;;4.57;1.40;;;;;;;;;;8252442;28;20029;-59
2024/01/01 21:32:51;;;;;;;5.63;1.60;;;;;;;;;;8247702;28;20965;-59
2024/01/01 21:36:52;;;;;;;3.60;1.30;;;;;;;;;;8247700;28;20025;-60
2024/01/01 21:40:52;;;;;;;5.00;1.60;;;;;;;;;;8249724;28;20041;-60
2024/01/01 21:44:52;;;;;;;6.47;1.65;;;;;;;;;;8254710;28;20059;-60
2024/01/01 21:48:52;;;;;;;5.53;1.30;;;;;;;;;;8251266;28;20038;-59
2024/01/01 21:52:55;;;;;;;7.57;1.30;;;;;;;;;;8251979;28;20036;-59
2024/01/01 21:56:55;;;;;;;11.23;1.55;;;;;;;;;;8250400;28;20536;-58
2024/01/01 22:00:57;;;;;;;4.30;1.20;;;;;;;;;;8248894;28;20115;-60
2024/01/01 22:04:57;;;;;;;7.47;1.50;;;;;;;;;;8250219;28;20052;-59
2024/01/01 22:08:57;;;;;;;5.30;1.52;;;;;;;;;;8254325;28;20679;-59
2024/01/01 22:12:57;;;;;;;8.63;1.60;;;;;;;;;;8259633;28;20033;-59
2024/01/01 22:16:58;;;;;;;5.15;1.50;;;;;;;;;;8260303;28;20038;-59
2024/01/01 22:20:58;;;;;;;6.00;1.48;;;;;;;;;;8253301;28;20044;-58
2024/01/01 22:24:59;;;;;;;5.93;1.40;;;;;;;;;;8253855;28;20099;-58
2024/01/01 22:28:59;;;;;;;3.83;1.38;;;;;;;;;;8256963;28;20461;-58
2024/01/01 22:32:59;;;;;;;1.90;1.00;;;;;;;;;;8255971;28;20041;-59
2024/01/01 22:37:00;;;;;;;4.45;1.25;;;;;;;;;;8257603;28;20025;-57
2024/01/01 22:41:03;;;;;;;6.55;1.27;;;;;;;;;;8257881;28;20017;-59
2024/01/01 22:45:04;;;;;;;3.92;1.23;;;;;;;;;;8253292;28;20017;-59
2024/01/01 22:49:04;;;;;;;4.88;1.20;;;;;;;;;;8257865;28;20009;-59
2024/01/01 22:53:05;;;;;;;6.10;1.25;;;;;;;;;;8260285;28;20406;-59
2024/01/01 22:57:05;;;;;;;3.88;1.48;;;;;;;;;;8252214;28;20100;-60
2024/01/01 23:01:05;;;;;;;4.63;1.45;;;;;;;;;;8252806;28;20041;-60
2024/01/01 23:05:06;;;;;;;4.35;1.05;;;;;;;;;;8253381;28;20033;-59
2024/01/01 23:09:06;;;;;;;3.20;1.23;;;;;;;;;;8251682;28;20101;-59
2024/01/01 23:13:06;;;;;;;4.93;1.38;;;;;;;;;;8252377;28;20439;-57
2024/01/01 23:17:06;;;;;;;2.83;1.40;;;;;;;;;;8254662;28;20208;-58
2024/01/01 23:21:06;;;;;;;4.68;1.27;;;;;;;;;;8247200;28;20788;-58
2024/01/01 23:25:07;;;;;;;4.88;1.30;;;;;;;;;;8255835;28;20025;-58
2024/01/01 23:29:07;;;;;;;4.10;1.00;;;;;;;;;;8259585;28;20111;-59
2024/01/01 23:33:08;;;;;;;2.67;1.00;;;;;;;;;;8267343;28;20104;-59
2024/01/01 23:37:08;;;;;;;2.22;0.93;;;;;;;;;;8258981;28;20028;-59
2024/01/01 23:41:08;;;;;;;2.90;1.10;;;;;;;;;;8247560;28;20029;-60
2024/01/01 23:45:09;;;;;;;3.95;1.15;;;;;;;;;;8255479;28;20268;-60
2024/01/01 23:49:09;;;;;;;2.20;0.90;;;;;;;;;;8246682;28;23320;-57